sensor_id;sensor_type;location;lat;lon;timestamp;temperature;humidity
14487;DHT22;7329;50.866;4.366;2022-08-19T00:00:03;25.40;99.90
14487;DHT22;7329;50.866;4.366;2022-08-19T00:02:07;25.40;99.90
14487;DHT22;7329;50.866;4.366;2022-08-19T00:04:12;25.40;99.90
14487;DHT22;7329;50.866;4.366;2022-08-19T00:06:15;25.40;99.90
14487;DHT22;7329;50.866;4.366;2022-08-19T00:08:18;25.40;99.90
14487;DHT22;7329;50.866;4.366;2022-08-19T00:10:21;25.40;99.90
14487;DHT22;7329;50.866;4.366;2022-08-19T00:12:24;25.40;99.90
14487;DHT22;7329;50.866;4.366;2022-08-19T00:14:28;25.40;99.90
14487;DHT22;7329;50.866;4.366;2022-08-19T00:16:32;25.40;99.90
14487;DHT22;7329;50.866;4.366;2022-08-19T00:18:36;25.40;99.90
14487;DHT22;7329;50.866;4.366;2022-08-19T00:20:38;25.30;99.90
14487;DHT22;7329;50.866;4.366;2022-08-19T00:22:41;25.30;99.90
14487;DHT22;7329;50.866;4.366;2022-08-19T00:24:43;25.30;99.90
14487;DHT22;7329;50.866;4.366;2022-08-19T00:26:46;25.30;99.90
14487;DHT22;7329;50.866;4.366;2022-08-19T00:28:48;25.30;99.90
14487;DHT22;7329;50.866;4.366;2022-08-19T00:30:50;25.30;99.90
14487;DHT22;7329;50.866;4.366;2022-08-19T00:32:54;25.40;99.90
14487;DHT22;7329;50.866;4.366;2022-08-19T00:34:58;25.30;99.90
14487;DHT22;7329;50.866;4.366;2022-08-19T00:37:01;25.30;99.90
14487;DHT22;7329;50.866;4.366;2022-08-19T00:39:03;25.40;99.90
14487;DHT22;7329;50.866;4.366;2022-08-19T00:41:06;25.30;99.90
14487;DHT22;7329;50.866;4.366;2022-08-19T00:43:10;25.30;99.90
14487;DHT22;7329;50.866;4.366;2022-08-19T00:45:16;25.30;99.90
14487;DHT22;7329;50.866;4.366;2022-08-19T00:47:19;25.30;99.90
14487;DHT22;7329;50.866;4.366;2022-08-19T00:49:25;25.30;99.90
14487;DHT22;7329;50.866;4.366;2022-08-19T00:51:31;25.30;99.90
14487;DHT22;7329;50.866;4.366;2022-08-19T00:53:35;25.30;99.90
14487;DHT22;7329;50.866;4.366;2022-08-19T00:55:38;25.30;99.90
14487;DHT22;7329;50.866;4.366;2022-08-19T00:57:51;25.30;99.90
14487;DHT22;7329;50.866;4.366;2022-08-19T00:59:56;25.30;99.90
14487;DHT22;7329;50.866;4.366;2022-08-19T01:02:00;25.30;99.90
14487;DHT22;7329;50.866;4.366;2022-08-19T01:04:02;25.30;99.90
14487;DHT22;7329;50.866;4.366;2022-08-19T01:06:05;25.30;99.90
14487;DHT22;7329;50.866;4.366;2022-08-19T01:08:09;25.30;99.90
14487;DHT22;7329;50.866;4.366;2022-08-19T01:10:15;25.30;99.90
14487;DHT22;7329;50.866;4.366;2022-08-19T01:12:20;25.30;99.90
14487;DHT22;7329;50.866;4.366;2022-08-19T01:14:23;25.30;99.90
14487;DHT22;7329;50.866;4.366;2022-08-19T01:16:28;25.30;99.90
14487;DHT22;7329;50.866;4.366;2022-08-19T01:18:32;25.30;99.90
14487;DHT22;7329;50.866;4.366;2022-08-19T01:20:37;25.30;99.90
14487;DHT22;7329;50.866;4.366;2022-08-19T01:22:44;25.30;99.90
14487;DHT22;7329;50.866;4.366;2022-08-19T01:24:46;25.30;99.90
14487;DHT22;7329;50.866;4.366;2022-08-19T01:26:49;25.30;99.90
14487;DHT22;7329;50.866;4.366;2022-08-19T01:28:54;25.30;99.90
14487;DHT22;7329;50.866;4.366;2022-08-19T01:30:58;25.30;99.90
14487;DHT22;7329;50.866;4.366;2022-08-19T01:33:01;25.30;99.90
14487;DHT22;7329;50.866;4.366;2022-08-19T01:35:07;25.20;99.90
14487;DHT22;7329;50.866;4.366;2022-08-19T01:37:11;25.20;99.90
14487;DHT22;7329;50.866;4.366;2022-08-19T01:39:17;25.20;99.90
14487;DHT22;7329;50.866;4.366;2022-08-19T01:41:20;25.20;99.90
14487;DHT22;7329;50.866;4.366;2022-08-19T01:43:24;25.20;99.90
14487;DHT22;7329;50.866;4.366;2022-08-19T01:45:30;25.20;99.90
14487;DHT22;7329;50.866;4.366;2022-08-19T01:47:33;25.20;99.90
14487;DHT22;7329;50.866;4.366;2022-08-19T01:49:36;25.20;99.90
14487;DHT22;7329;50.866;4.366;2022-08-19T01:51:39;25.20;99.90
14487;DHT22;7329;50.866;4.366;2022-08-19T01:53:41;25.20;99.90
14487;DHT22;7329;50.866;4.366;2022-08-19T01:55:45;25.20;99.90
14487;DHT22;7329;50.866;4.366;2022-08-19T01:57:50;25.20;99.90
14487;DHT22;7329;50.866;4.366;2022-08-19T01:59:53;25.10;99.90
14487;DHT22;7329;50.866;4.366;2022-08-19T02:01:56;25.20;99.90
14487;DHT22;7329;50.866;4.366;2022-08-19T02:03:58;25.10;99.90
14487;DHT22;7329;50.866;4.366;2022-08-19T02:06:02;25.20;99.90
14487;DHT22;7329;50.866;4.366;2022-08-19T02:08:07;25.20;99.90
14487;DHT22;7329;50.866;4.366;2022-08-19T02:10:12;25.20;99.90
14487;DHT22;7329;50.866;4.366;2022-08-19T02:12:17;25.10;99.90
14487;DHT22;7329;50.866;4.366;2022-08-19T02:14:19;25.10;99.90
14487;DHT22;7329;50.866;4.366;2022-08-19T02:16:22;25.10;99.90
14487;DHT22;7329;50.866;4.366;2022-08-19T02:18:24;25.10;99.90
14487;DHT22;7329;50.866;4.366;2022-08-19T02:20:27;25.10;99.90
14487;DHT22;7329;50.866;4.366;2022-08-19T02:22:29;25.10;99.90
14487;DHT22;7329;50.866;4.366;2022-08-19T02:24:32;25.10;99.90
14487;DHT22;7329;50.866;4.366;2022-08-19T02:26:35;25.10;99.90
14487;DHT22;7329;50.866;4.366;2022-08-19T02:28:38;25.10;99.90
14487;DHT22;7329;50.866;4.366;2022-08-19T02:30:41;25.10;99.90
14487;DHT22;7329;50.866;4.366;2022-08-19T02:32:44;25.10;99.90
14487;DHT22;7329;50.866;4.366;2022-08-19T02:34:46;25.10;99.90
14487;DHT22;7329;50.866;4.366;2022-08-19T02:36:49;25.10;99.90
14487;DHT22;7329;50.866;4.366;2022-08-19T02:38:51;25.10;99.90
14487;DHT22;7329;50.866;4.366;2022-08-19T02:40:54;25.10;99.90
14487;DHT22;7329;50.866;4.366;2022-08-19T02:42:57;25.10;99.90
14487;DHT22;7329;50.866;4.366;2022-08-19T02:45:01;25.10;99.90
14487;DHT22;7329;50.866;4.366;2022-08-19T02:47:03;25.10;99.90
14487;DHT22;7329;50.866;4.366;2022-08-19T02:49:07;25.00;99.90
14487;DHT22;7329;50.866;4.366;2022-08-19T02:51:16;25.00;99.90
14487;DHT22;7329;50.866;4.366;2022-08-19T02:53:18;25.00;99.90
14487;DHT22;7329;50.866;4.366;2022-08-19T02:55:23;25.00;99.90
14487;DHT22;7329;50.866;4.366;2022-08-19T02:57:25;25.00;99.90
14487;DHT22;7329;50.866;4.366;2022-08-19T02:59:30;25.00;99.90
14487;DHT22;7329;50.866;4.366;2022-08-19T03:01:34;25.00;99.90
14487;DHT22;7329;50.866;4.366;2022-08-19T03:03:36;25.00;99.90
14487;DHT22;7329;50.866;4.366;2022-08-19T03:05:40;25.00;99.90
14487;DHT22;7329;50.866;4.366;2022-08-19T03:07:42;25.00;99.90
14487;DHT22;7329;50.866;4.366;2022-08-19T03:09:44;25.00;99.90
14487;DHT22;7329;50.866;4.366;2022-08-19T03:11:47;25.00;99.90
14487;DHT22;7329;50.866;4.366;2022-08-19T03:13:50;25.00;99.90
14487;DHT22;7329;50.866;4.366;2022-08-19T03:15:52;25.00;99.90
14487;DHT22;7329;50.866;4.366;2022-08-19T03:17:56;25.00;99.90
14487;DHT22;7329;50.866;4.366;2022-08-19T03:19:58;25.00;99.90
14487;DHT22;7329;50.866;4.366;2022-08-19T03:22:00;24.90;99.90
14487;DHT22;7329;50.866;4.366;2022-08-19T03:24:06;24.90;99.90
14487;DHT22;7329;50.866;4.366;2022-08-19T03:26:08;25.00;99.90
14487;DHT22;7329;50.866;4.366;2022-08-19T03:28:12;24.90;99.90
14487;DHT22;7329;50.866;4.366;2022-08-19T03:30:15;24.90;99.90
14487;DHT22;7329;50.866;4.366;2022-08-19T03:32:18;24.90;99.90
14487;DHT22;7329;50.866;4.366;2022-08-19T03:34:24;24.90;99.90
14487;DHT22;7329;50.866;4.366;2022-08-19T03:36:27;24.90;99.90
14487;DHT22;7329;50.866;4.366;2022-08-19T03:38:29;24.90;99.90
14487;DHT22;7329;50.866;4.366;2022-08-19T03:40:36;24.90;99.90
14487;DHT22;7329;50.866;4.366;2022-08-19T03:42:38;24.90;99.90
14487;DHT22;7329;50.866;4.366;2022-08-19T03:44:42;24.90;99.90
14487;DHT22;7329;50.866;4.366;2022-08-19T03:46:47;24.90;99.90
14487;DHT22;7329;50.866;4.366;2022-08-19T03:48:51;24.90;99.90
14487;DHT22;7329;50.866;4.366;2022-08-19T03:50:56;24.90;99.90
14487;DHT22;7329;50.866;4.366;2022-08-19T03:52:59;24.90;99.90
14487;DHT22;7329;50.866;4.366;2022-08-19T03:55:02;24.90;99.90
14487;DHT22;7329;50.866;4.366;2022-08-19T03:57:05;24.90;99.90
14487;DHT22;7329;50.866;4.366;2022-08-19T03:59:11;24.90;99.90
14487;DHT22;7329;50.866;4.366;2022-08-19T04:01:16;24.90;99.90
14487;DHT22;7329;50.866;4.366;2022-08-19T04:03:18;24.90;99.90
14487;DHT22;7329;50.866;4.366;2022-08-19T04:05:21;24.90;99.90
14487;DHT22;7329;50.866;4.366;2022-08-19T04:07:24;24.90;99.90
14487;DHT22;7329;50.866;4.366;2022-08-19T04:09:27;24.90;99.90
14487;DHT22;7329;50.866;4.366;2022-08-19T04:11:31;24.90;99.90
14487;DHT22;7329;50.866;4.366;2022-08-19T04:13:35;24.90;99.90
14487;DHT22;7329;50.866;4.366;2022-08-19T04:15:39;24.90;99.90
14487;DHT22;7329;50.866;4.366;2022-08-19T04:17:42;24.90;99.90
14487;DHT22;7329;50.866;4.366;2022-08-19T04:19:45;24.90;99.90
14487;DHT22;7329;50.866;4.366;2022-08-19T04:21:50;24.90;99.90
14487;DHT22;7329;50.866;4.366;2022-08-19T04:23:54;24.90;99.90
14487;DHT22;7329;50.866;4.366;2022-08-19T04:25:57;24.80;99.90
14487;DHT22;7329;50.866;4.366;2022-08-19T04:28:00;24.80;99.90
14487;DHT22;7329;50.866;4.366;2022-08-19T04:30:03;24.80;99.90
14487;DHT22;7329;50.866;4.366;2022-08-19T04:32:06;24.80;99.90
14487;DHT22;7329;50.866;4.366;2022-08-19T04:34:22;24.80;99.90
14487;DHT22;7329;50.866;4.366;2022-08-19T04:36:28;24.80;99.90
14487;DHT22;7329;50.866;4.366;2022-08-19T04:38:30;24.80;99.90
14487;DHT22;7329;50.866;4.366;2022-08-19T04:40:34;24.80;99.90
14487;DHT22;7329;50.866;4.366;2022-08-19T04:42:58;24.80;99.90
14487;DHT22;7329;50.866;4.366;2022-08-19T04:45:02;24.80;99.90
14487;DHT22;7329;50.866;4.366;2022-08-19T04:47:05;24.80;99.90
14487;DHT22;7329;50.866;4.366;2022-08-19T04:49:07;24.70;99.90
14487;DHT22;7329;50.866;4.366;2022-08-19T04:51:11;24.80;99.90
14487;DHT22;7329;50.866;4.366;2022-08-19T04:53:14;24.80;99.90
14487;DHT22;7329;50.866;4.366;2022-08-19T04:55:16;24.70;99.90
14487;DHT22;7329;50.866;4.366;2022-08-19T04:57:21;24.80;99.90
14487;DHT22;7329;50.866;4.366;2022-08-19T04:59:23;24.80;99.90
14487;DHT22;7329;50.866;4.366;2022-08-19T05:01:28;24.70;99.90
14487;DHT22;7329;50.866;4.366;2022-08-19T05:03:30;24.70;99.90
14487;DHT22;7329;50.866;4.366;2022-08-19T05:05:38;24.70;99.90
14487;DHT22;7329;50.866;4.366;2022-08-19T05:07:41;24.70;99.90
14487;DHT22;7329;50.866;4.366;2022-08-19T05:09:43;24.70;99.90
14487;DHT22;7329;50.866;4.366;2022-08-19T05:11:45;24.70;99.90
14487;DHT22;7329;50.866;4.366;2022-08-19T05:13:50;24.70;99.90
14487;DHT22;7329;50.866;4.366;2022-08-19T05:15:56;24.70;99.90
14487;DHT22;7329;50.866;4.366;2022-08-19T05:17:59;24.70;99.90
14487;DHT22;7329;50.866;4.366;2022-08-19T05:20:18;24.70;99.90
14487;DHT22;7329;50.866;4.366;2022-08-19T05:22:46;24.70;99.90
14487;DHT22;7329;50.866;4.366;2022-08-19T05:24:48;24.70;99.90
14487;DHT22;7329;50.866;4.366;2022-08-19T05:26:52;24.70;99.90
14487;DHT22;7329;50.866;4.366;2022-08-19T05:28:58;24.70;99.90
14487;DHT22;7329;50.866;4.366;2022-08-19T05:31:01;24.70;99.90
14487;DHT22;7329;50.866;4.366;2022-08-19T05:33:03;24.70;99.90
14487;DHT22;7329;50.866;4.366;2022-08-19T05:35:06;24.70;99.90
14487;DHT22;7329;50.866;4.366;2022-08-19T05:37:10;24.70;99.90
14487;DHT22;7329;50.866;4.366;2022-08-19T05:39:14;24.70;99.90
14487;DHT22;7329;50.866;4.366;2022-08-19T05:41:17;24.70;99.90
14487;DHT22;7329;50.866;4.366;2022-08-19T05:43:19;24.70;99.90
14487;DHT22;7329;50.866;4.366;2022-08-19T05:45:23;24.70;99.90
14487;DHT22;7329;50.866;4.366;2022-08-19T05:47:25;24.70;99.90
14487;DHT22;7329;50.866;4.366;2022-08-19T05:49:29;24.70;99.90
14487;DHT22;7329;50.866;4.366;2022-08-19T05:51:32;24.70;99.90
14487;DHT22;7329;50.866;4.366;2022-08-19T05:53:35;24.70;99.90
14487;DHT22;7329;50.866;4.366;2022-08-19T05:55:38;24.70;99.90
14487;DHT22;7329;50.866;4.366;2022-08-19T05:57:40;24.70;99.90
14487;DHT22;7329;50.866;4.366;2022-08-19T05:59:42;24.70;99.90
14487;DHT22;7329;50.866;4.366;2022-08-19T06:01:53;24.70;99.90
14487;DHT22;7329;50.866;4.366;2022-08-19T06:03:57;24.70;99.90
14487;DHT22;7329;50.866;4.366;2022-08-19T06:06:00;24.70;99.90
14487;DHT22;7329;50.866;4.366;2022-08-19T06:08:03;24.70;99.90
14487;DHT22;7329;50.866;4.366;2022-08-19T06:10:08;24.70;99.90
14487;DHT22;7329;50.866;4.366;2022-08-19T06:12:11;24.70;99.90
14487;DHT22;7329;50.866;4.366;2022-08-19T06:14:16;24.70;99.90
14487;DHT22;7329;50.866;4.366;2022-08-19T06:16:22;24.70;99.90
14487;DHT22;7329;50.866;4.366;2022-08-19T06:18:26;24.70;99.90
14487;DHT22;7329;50.866;4.366;2022-08-19T06:20:28;24.70;99.90
14487;DHT22;7329;50.866;4.366;2022-08-19T06:22:37;24.70;99.90
14487;DHT22;7329;50.866;4.366;2022-08-19T06:24:39;24.70;99.90
14487;DHT22;7329;50.866;4.366;2022-08-19T06:26:43;24.70;99.90
14487;DHT22;7329;50.866;4.366;2022-08-19T06:28:47;24.70;99.90
14487;DHT22;7329;50.866;4.366;2022-08-19T06:30:50;24.80;99.90
14487;DHT22;7329;50.866;4.366;2022-08-19T06:32:52;24.80;99.90
14487;DHT22;7329;50.866;4.366;2022-08-19T06:34:56;24.80;99.90
14487;DHT22;7329;50.866;4.366;2022-08-19T06:37:00;24.80;99.90
14487;DHT22;7329;50.866;4.366;2022-08-19T06:39:04;24.80;99.90
14487;DHT22;7329;50.866;4.366;2022-08-19T06:41:07;24.70;99.90
14487;DHT22;7329;50.866;4.366;2022-08-19T06:43:10;24.70;99.90
14487;DHT22;7329;50.866;4.366;2022-08-19T06:45:13;24.60;99.90
14487;DHT22;7329;50.866;4.366;2022-08-19T06:47:17;24.50;99.90
14487;DHT22;7329;50.866;4.366;2022-08-19T06:49:20;23.60;99.90
14487;DHT22;7329;50.866;4.366;2022-08-19T06:51:24;23.00;99.90
14487;DHT22;7329;50.866;4.366;2022-08-19T06:53:27;22.70;99.90
14487;DHT22;7329;50.866;4.366;2022-08-19T06:55:30;22.20;99.90
14487;DHT22;7329;50.866;4.366;2022-08-19T06:57:33;21.90;99.90
14487;DHT22;7329;50.866;4.366;2022-08-19T06:59:35;21.90;99.90
14487;DHT22;7329;50.866;4.366;2022-08-19T07:01:42;21.80;99.90
14487;DHT22;7329;50.866;4.366;2022-08-19T07:03:48;21.80;99.90
14487;DHT22;7329;50.866;4.366;2022-08-19T07:05:50;21.70;99.90
14487;DHT22;7329;50.866;4.366;2022-08-19T07:07:54;21.80;99.90
14487;DHT22;7329;50.866;4.366;2022-08-19T07:09:57;21.80;99.90
14487;DHT22;7329;50.866;4.366;2022-08-19T07:11:59;21.80;99.90
14487;DHT22;7329;50.866;4.366;2022-08-19T07:14:03;21.90;99.90
14487;DHT22;7329;50.866;4.366;2022-08-19T07:16:08;21.80;99.90
14487;DHT22;7329;50.866;4.366;2022-08-19T07:18:10;21.70;99.90
14487;DHT22;7329;50.866;4.366;2022-08-19T07:20:13;21.60;99.90
14487;DHT22;7329;50.866;4.366;2022-08-19T07:22:15;21.40;99.90
14487;DHT22;7329;50.866;4.366;2022-08-19T07:24:20;21.60;99.90
14487;DHT22;7329;50.866;4.366;2022-08-19T07:26:27;21.80;99.90
14487;DHT22;7329;50.866;4.366;2022-08-19T07:28:29;21.70;99.90
14487;DHT22;7329;50.866;4.366;2022-08-19T07:30:31;21.60;99.90
14487;DHT22;7329;50.866;4.366;2022-08-19T07:32:34;21.70;99.90
14487;DHT22;7329;50.866;4.366;2022-08-19T07:34:36;21.70;99.90
14487;DHT22;7329;50.866;4.366;2022-08-19T07:36:40;21.50;99.90
14487;DHT22;7329;50.866;4.366;2022-08-19T07:38:44;21.50;99.90
14487;DHT22;7329;50.866;4.366;2022-08-19T07:40:49;21.60;99.90
14487;DHT22;7329;50.866;4.366;2022-08-19T07:42:52;21.70;99.90
14487;DHT22;7329;50.866;4.366;2022-08-19T07:44:54;21.80;99.90
14487;DHT22;7329;50.866;4.366;2022-08-19T07:46:57;21.70;99.90
14487;DHT22;7329;50.866;4.366;2022-08-19T07:49:02;21.50;99.90
14487;DHT22;7329;50.866;4.366;2022-08-19T07:51:06;21.60;99.90
14487;DHT22;7329;50.866;4.366;2022-08-19T07:53:09;21.80;99.90
14487;DHT22;7329;50.866;4.366;2022-08-19T07:55:14;21.80;99.90
14487;DHT22;7329;50.866;4.366;2022-08-19T07:57:18;21.90;99.90
14487;DHT22;7329;50.866;4.366;2022-08-19T07:59:21;21.90;99.90
14487;DHT22;7329;50.866;4.366;2022-08-19T08:01:26;21.80;99.90
14487;DHT22;7329;50.866;4.366;2022-08-19T08:03:29;21.80;99.90
14487;DHT22;7329;50.866;4.366;2022-08-19T08:05:49;21.80;99.90
14487;DHT22;7329;50.866;4.366;2022-08-19T08:08:09;21.80;99.90
14487;DHT22;7329;50.866;4.366;2022-08-19T08:10:37;21.80;99.90
14487;DHT22;7329;50.866;4.366;2022-08-19T08:12:40;22.00;99.90
14487;DHT22;7329;50.866;4.366;2022-08-19T08:14:46;22.10;99.90
14487;DHT22;7329;50.866;4.366;2022-08-19T08:16:48;22.20;99.90
14487;DHT22;7329;50.866;4.366;2022-08-19T08:18:52;22.20;99.90
14487;DHT22;7329;50.866;4.366;2022-08-19T08:20:54;22.20;99.90
14487;DHT22;7329;50.866;4.366;2022-08-19T08:22:57;22.30;99.90
14487;DHT22;7329;50.866;4.366;2022-08-19T08:25:19;22.30;99.90
14487;DHT22;7329;50.866;4.366;2022-08-19T08:27:21;22.30;99.90
14487;DHT22;7329;50.866;4.366;2022-08-19T08:29:25;22.20;99.90
14487;DHT22;7329;50.866;4.366;2022-08-19T08:31:28;22.00;99.90
14487;DHT22;7329;50.866;4.366;2022-08-19T08:33:30;22.10;99.90
14487;DHT22;7329;50.866;4.366;2022-08-19T08:35:32;22.20;99.90
14487;DHT22;7329;50.866;4.366;2022-08-19T08:37:35;22.30;99.90
14487;DHT22;7329;50.866;4.366;2022-08-19T08:39:38;22.30;99.90
14487;DHT22;7329;50.866;4.366;2022-08-19T08:41:47;22.30;99.90
14487;DHT22;7329;50.866;4.366;2022-08-19T08:43:52;22.10;99.90
14487;DHT22;7329;50.866;4.366;2022-08-19T08:46:01;22.30;99.90
14487;DHT22;7329;50.866;4.366;2022-08-19T08:48:13;22.40;99.90
14487;DHT22;7329;50.866;4.366;2022-08-19T08:50:21;22.40;99.90
14487;DHT22;7329;50.866;4.366;2022-08-19T08:52:26;22.60;99.90
14487;DHT22;7329;50.866;4.366;2022-08-19T08:54:34;22.60;99.90
14487;DHT22;7329;50.866;4.366;2022-08-19T08:56:38;22.60;99.90
14487;DHT22;7329;50.866;4.366;2022-08-19T08:58:48;22.50;99.90
14487;DHT22;7329;50.866;4.366;2022-08-19T09:00:51;22.50;99.90
14487;DHT22;7329;50.866;4.366;2022-08-19T09:02:56;22.40;99.90
14487;DHT22;7329;50.866;4.366;2022-08-19T09:04:59;22.20;99.90
14487;DHT22;7329;50.866;4.366;2022-08-19T09:07:23;22.30;99.90
14487;DHT22;7329;50.866;4.366;2022-08-19T09:09:30;22.30;99.90
14487;DHT22;7329;50.866;4.366;2022-08-19T09:11:44;22.40;99.90
14487;DHT22;7329;50.866;4.366;2022-08-19T09:13:59;22.50;99.90
14487;DHT22;7329;50.866;4.366;2022-08-19T09:16:07;22.50;99.90
14487;DHT22;7329;50.866;4.366;2022-08-19T09:18:13;22.40;99.90
14487;DHT22;7329;50.866;4.366;2022-08-19T09:20:18;22.40;99.90
14487;DHT22;7329;50.866;4.366;2022-08-19T09:22:21;22.50;99.90
14487;DHT22;7329;50.866;4.366;2022-08-19T09:24:24;22.40;99.90
14487;DHT22;7329;50.866;4.366;2022-08-19T09:26:26;22.40;99.90
14487;DHT22;7329;50.866;4.366;2022-08-19T09:28:29;22.60;99.90
14487;DHT22;7329;50.866;4.366;2022-08-19T09:30:40;22.60;99.90
14487;DHT22;7329;50.866;4.366;2022-08-19T09:32:43;22.70;99.90
14487;DHT22;7329;50.866;4.366;2022-08-19T09:34:47;22.70;99.90
14487;DHT22;7329;50.866;4.366;2022-08-19T09:36:50;22.60;99.90
14487;DHT22;7329;50.866;4.366;2022-08-19T09:38:55;22.60;99.90
14487;DHT22;7329;50.866;4.366;2022-08-19T09:41:02;22.60;99.90
14487;DHT22;7329;50.866;4.366;2022-08-19T09:43:05;22.60;99.90
14487;DHT22;7329;50.866;4.366;2022-08-19T09:45:09;22.70;99.90
14487;DHT22;7329;50.866;4.366;2022-08-19T09:47:12;22.60;99.90
14487;DHT22;7329;50.866;4.366;2022-08-19T09:49:15;22.70;99.90
14487;DHT22;7329;50.866;4.366;2022-08-19T09:51:20;22.70;99.90
14487;DHT22;7329;50.866;4.366;2022-08-19T09:53:23;22.70;99.90
14487;DHT22;7329;50.866;4.366;2022-08-19T09:55:25;22.70;99.90
14487;DHT22;7329;50.866;4.366;2022-08-19T09:57:28;22.60;99.90
14487;DHT22;7329;50.866;4.366;2022-08-19T09:59:30;22.60;99.90
14487;DHT22;7329;50.866;4.366;2022-08-19T10:01:36;22.50;99.90
14487;DHT22;7329;50.866;4.366;2022-08-19T10:03:39;22.50;99.90
14487;DHT22;7329;50.866;4.366;2022-08-19T10:05:41;22.70;99.90
14487;DHT22;7329;50.866;4.366;2022-08-19T10:07:50;22.80;99.90
14487;DHT22;7329;50.866;4.366;2022-08-19T10:09:53;23.00;99.90
14487;DHT22;7329;50.866;4.366;2022-08-19T10:11:55;23.00;99.90
14487;DHT22;7329;50.866;4.366;2022-08-19T10:13:57;22.90;99.90
14487;DHT22;7329;50.866;4.366;2022-08-19T10:16:04;22.80;99.90
14487;DHT22;7329;50.866;4.366;2022-08-19T10:18:07;22.80;99.90
14487;DHT22;7329;50.866;4.366;2022-08-19T10:20:10;22.80;99.90
14487;DHT22;7329;50.866;4.366;2022-08-19T10:22:13;22.90;99.90
14487;DHT22;7329;50.866;4.366;2022-08-19T10:24:17;22.90;99.90
14487;DHT22;7329;50.866;4.366;2022-08-19T10:26:23;22.90;99.90
14487;DHT22;7329;50.866;4.366;2022-08-19T10:28:26;23.00;99.90
14487;DHT22;7329;50.866;4.366;2022-08-19T10:30:28;23.10;99.90
14487;DHT22;7329;50.866;4.366;2022-08-19T10:32:31;23.10;99.90
14487;DHT22;7329;50.866;4.366;2022-08-19T10:34:33;22.90;99.90
14487;DHT22;7329;50.866;4.366;2022-08-19T10:36:36;22.90;99.90
14487;DHT22;7329;50.866;4.366;2022-08-19T10:38:39;22.90;99.90
14487;DHT22;7329;50.866;4.366;2022-08-19T10:40:43;23.00;99.90
14487;DHT22;7329;50.866;4.366;2022-08-19T10:42:45;22.80;99.90
14487;DHT22;7329;50.866;4.366;2022-08-19T10:44:47;22.80;99.90
14487;DHT22;7329;50.866;4.366;2022-08-19T10:46:51;22.80;99.90
14487;DHT22;7329;50.866;4.366;2022-08-19T10:48:53;22.70;99.90
14487;DHT22;7329;50.866;4.366;2022-08-19T10:50:57;22.70;99.90
14487;DHT22;7329;50.866;4.366;2022-08-19T10:53:16;22.70;99.90
14487;DHT22;7329;50.866;4.366;2022-08-19T10:55:22;22.90;99.90
14487;DHT22;7329;50.866;4.366;2022-08-19T10:57:43;22.90;99.90
14487;DHT22;7329;50.866;4.366;2022-08-19T10:59:45;22.80;99.90
14487;DHT22;7329;50.866;4.366;2022-08-19T11:01:50;22.80;99.90
14487;DHT22;7329;50.866;4.366;2022-08-19T11:03:52;23.00;99.90
14487;DHT22;7329;50.866;4.366;2022-08-19T11:05:58;23.00;99.90
14487;DHT22;7329;50.866;4.366;2022-08-19T11:08:01;23.00;99.90
14487;DHT22;7329;50.866;4.366;2022-08-19T11:10:04;22.90;99.90
14487;DHT22;7329;50.866;4.366;2022-08-19T11:12:07;22.80;99.90
14487;DHT22;7329;50.866;4.366;2022-08-19T11:14:17;22.80;99.90
14487;DHT22;7329;50.866;4.366;2022-08-19T11:16:23;22.70;99.90
14487;DHT22;7329;50.866;4.366;2022-08-19T11:18:27;22.70;99.90
14487;DHT22;7329;50.866;4.366;2022-08-19T11:20:29;22.90;99.90
14487;DHT22;7329;50.866;4.366;2022-08-19T11:22:32;22.90;99.90
14487;DHT22;7329;50.866;4.366;2022-08-19T11:24:34;22.80;99.90
14487;DHT22;7329;50.866;4.366;2022-08-19T11:26:38;22.80;99.90
14487;DHT22;7329;50.866;4.366;2022-08-19T11:28:41;22.80;99.90
14487;DHT22;7329;50.866;4.366;2022-08-19T11:30:45;22.90;99.90
14487;DHT22;7329;50.866;4.366;2022-08-19T11:32:47;23.00;99.90
14487;DHT22;7329;50.866;4.366;2022-08-19T11:34:50;23.10;99.90
14487;DHT22;7329;50.866;4.366;2022-08-19T11:36:52;23.20;99.90
14487;DHT22;7329;50.866;4.366;2022-08-19T11:38:55;23.10;99.90
14487;DHT22;7329;50.866;4.366;2022-08-19T11:40:59;23.10;99.90
14487;DHT22;7329;50.866;4.366;2022-08-19T11:43:01;23.00;99.90
14487;DHT22;7329;50.866;4.366;2022-08-19T11:45:04;23.00;99.90
14487;DHT22;7329;50.866;4.366;2022-08-19T11:47:08;23.00;99.90
14487;DHT22;7329;50.866;4.366;2022-08-19T11:49:11;23.10;99.90
14487;DHT22;7329;50.866;4.366;2022-08-19T11:51:17;23.10;99.90
14487;DHT22;7329;50.866;4.366;2022-08-19T11:53:20;23.10;99.90
14487;DHT22;7329;50.866;4.366;2022-08-19T11:55:23;23.10;99.90
14487;DHT22;7329;50.866;4.366;2022-08-19T11:57:25;23.30;99.90
14487;DHT22;7329;50.866;4.366;2022-08-19T11:59:28;23.30;99.90
14487;DHT22;7329;50.866;4.366;2022-08-19T12:01:30;23.30;99.90
14487;DHT22;7329;50.866;4.366;2022-08-19T12:03:34;23.40;99.90
14487;DHT22;7329;50.866;4.366;2022-08-19T12:05:37;23.50;99.90
14487;DHT22;7329;50.866;4.366;2022-08-19T12:07:40;23.50;99.90
14487;DHT22;7329;50.866;4.366;2022-08-19T12:09:44;23.60;99.90
14487;DHT22;7329;50.866;4.366;2022-08-19T12:11:46;23.50;99.90
14487;DHT22;7329;50.866;4.366;2022-08-19T12:13:49;23.60;99.90
14487;DHT22;7329;50.866;4.366;2022-08-19T12:15:51;23.60;99.90
14487;DHT22;7329;50.866;4.366;2022-08-19T12:17:54;23.70;99.90
14487;DHT22;7329;50.866;4.366;2022-08-19T12:19:58;23.80;99.90
14487;DHT22;7329;50.866;4.366;2022-08-19T12:22:01;23.80;99.90
14487;DHT22;7329;50.866;4.366;2022-08-19T12:24:05;23.80;99.90
14487;DHT22;7329;50.866;4.366;2022-08-19T12:26:09;23.90;99.90
14487;DHT22;7329;50.866;4.366;2022-08-19T12:28:12;23.90;99.90
14487;DHT22;7329;50.866;4.366;2022-08-19T12:30:14;23.80;99.90
14487;DHT22;7329;50.866;4.366;2022-08-19T12:32:16;23.90;99.90
14487;DHT22;7329;50.866;4.366;2022-08-19T12:34:19;24.00;99.90
14487;DHT22;7329;50.866;4.366;2022-08-19T12:36:23;24.00;99.90
14487;DHT22;7329;50.866;4.366;2022-08-19T12:38:26;24.10;99.90
14487;DHT22;7329;50.866;4.366;2022-08-19T12:40:28;24.20;99.90
14487;DHT22;7329;50.866;4.366;2022-08-19T12:42:30;24.20;99.90
14487;DHT22;7329;50.866;4.366;2022-08-19T12:44:33;24.20;99.90
14487;DHT22;7329;50.866;4.366;2022-08-19T12:46:35;24.30;99.90
14487;DHT22;7329;50.866;4.366;2022-08-19T12:48:38;24.40;99.90
14487;DHT22;7329;50.866;4.366;2022-08-19T12:50:44;24.60;99.90
14487;DHT22;7329;50.866;4.366;2022-08-19T12:52:48;24.60;99.90
14487;DHT22;7329;50.866;4.366;2022-08-19T12:54:52;24.60;99.90
14487;DHT22;7329;50.866;4.366;2022-08-19T12:56:55;24.70;99.90
14487;DHT22;7329;50.866;4.366;2022-08-19T12:58:57;24.80;99.90
14487;DHT22;7329;50.866;4.366;2022-08-19T13:01:11;24.80;99.90
14487;DHT22;7329;50.866;4.366;2022-08-19T13:03:14;24.80;99.90
14487;DHT22;7329;50.866;4.366;2022-08-19T13:05:18;24.80;99.90
14487;DHT22;7329;50.866;4.366;2022-08-19T13:07:23;24.80;99.90
14487;DHT22;7329;50.866;4.366;2022-08-19T13:09:26;24.90;99.90
14487;DHT22;7329;50.866;4.366;2022-08-19T13:11:29;24.90;99.90
14487;DHT22;7329;50.866;4.366;2022-08-19T13:13:33;24.90;99.90
14487;DHT22;7329;50.866;4.366;2022-08-19T13:15:37;25.00;99.90